Logan Township, New Jersey
Current Conditions -  °F | °C
As of 7:54 AM on Saturday 20 Dec 2014 (Local Time) from KPHL Reporting Station
Overcast Overcast  
Wind Chill: 26°   Ceiling: 2600
Heat Index: 33°   Visibility: 10mi
Dew Point: 21°   Wind: 8mph
Humidity: 61%   Direction: 320°NW
Pressure: 30.3"   Gusts: NA
Location:  39.757°N, 75.3338°W
Report Text: KPHL 201254Z 32007KT 10SM OVC026 01/M06 A3030 RMK AO2 SLP259 T00061061
Loading
Personal Weather Stations






























Interactive Weather Map New forecast layout! Learn more

10-Day Weather Forecast

Advertisements
Track Severe Weather on mobile